Flight Track Log - Related Links

Times and Time Zones

All times are in EST time to prevent confusion due to time zone crossing. See the AIP1597 flight status page for this flight to view local times or setup timezone preferences in your user account.

Time Position Orientation Groundspeed Altitude Reporting Facility
EST Latitude Longitude Course Direction KTS MPH feet Rate Location/Type
Fri 10:07:03 AM 45.8478 -108.7006 288° West 171 197 8,800  Level Salt Lake Center
Fri 10:08:04 AM 45.8619 -108.7656 287° West 175 201 10,300 1,623 Climbing Salt Lake Center
Fri 10:09:05 AM 45.8789 -108.8403 288° West 181 208 12,100 1,636 Climbing Salt Lake Center
Fri 10:10:05 AM 45.8958 -108.9128 289° West 191 220 13,600 1,388 Climbing Salt Lake Center
Fri 10:11:00 AM 45.9252 -109.0637 288° West  Level Estimated
Fri 10:11:06 AM 45.9108 -108.9858 286° West 193 222 14,900  Level Salt Lake Center
Fri 10:12:00 AM 45.9446 -109.1507 288° West  Level Estimated
Fri 10:12:07 AM 45.9275 -109.0603 288° West 197 227 16,000  Level Salt Lake Center
Fri 10:13:07 AM 45.9469 -109.1497 287° West 215 247 16,000  Level Salt Lake Center
Fri 10:14:08 AM 45.9644 -109.2364 286° West 227 261 16,000  Level Salt Lake Center
Fri 10:15:09 AM 45.9817 -109.3231 286° West 228 262 16,000 98 Level Salt Lake Center
Fri 10:16:10 AM 45.9994 -109.4117 286° West 231 266 16,200 49 Climbing Salt Lake Center
Fri 10:17:11 AM 46.0197 -109.5053 287° West 231 266 16,100 -98 Descending Salt Lake Center
Fri 10:18:12 AM 46.0392 -109.5922 288° West 230 265 16,000 -50 Descending Salt Lake Center
Fri 10:19:12 AM 46.0572 -109.6778 287° West 227 261 16,000  Level Salt Lake Center
Fri 10:20:13 AM 46.0778 -109.7708 288° West 228 262 16,000  Level Salt Lake Center
Fri 10:21:14 AM 46.0928 -109.8511 285° West 231 266 16,000 -49 Level Salt Lake Center
Fri 10:22:15 AM 46.1108 -109.9406 286° West 233 268 15,900  Descending Salt Lake Center
Fri 10:23:16 AM 46.1297 -110.0292 287° West 232 267 16,000  Climbing Salt Lake Center
Fri 10:24:17 AM 46.1500 -110.1181 288° West 234 269 15,900 -49 Descending Salt Lake Center
Fri 10:25:18 AM 46.1667 -110.2078 285° West 233 268 15,900 99 Level Salt Lake Center
Fri 10:26:18 AM 46.1861 -110.2978 287° West 233 268 16,100 50 Climbing Salt Lake Center
Fri 10:27:19 AM 46.2108 -110.4006 289° West 230 265 16,000 -49 Descending Salt Lake Center
Fri 10:28:20 AM 46.2308 -110.4867 289° West 228 262 16,000  Level Salt Lake Center
Fri 10:29:21 AM 46.2458 -110.5756 284° West 227 261 16,000  Level Salt Lake Center
Fri 10:30:22 AM 46.2622 -110.6636 285° West 229 264 16,000 49 Level Salt Lake Center
Fri 10:31:23 AM 46.2825 -110.7489 289° West 226 260 16,100  Climbing Salt Lake Center
Fri 10:32:24 AM 46.3028 -110.8333 289° West 223 257 16,000 -49 Descending Salt Lake Center
Fri 10:33:25 AM 46.3200 -110.9231 286° West 229 264 16,000  Level Salt Lake Center
Fri 10:34:26 AM 46.3381 -111.0261 284° West 239 275 16,000 49 Level Salt Lake Center
Fri 10:35:27 AM 46.3567 -111.1183 286° West 235 270 16,100 49 Climbing Salt Lake Center
Fri 10:36:28 AM 46.3758 -111.2106 287° West 235 270 16,100 -49 Level Salt Lake Center
Fri 10:37:29 AM 46.3933 -111.3028 285° West 233 268 16,000 -49 Descending Salt Lake Center
Fri 10:38:30 AM 46.4119 -111.3947 286° West 234 269 16,000  Level Salt Lake Center
Fri 10:39:31 AM 46.4294 -111.4881 285° West 235 270 16,000  Level Salt Lake Center
Fri 10:40:32 AM 46.4461 -111.5692 287° West 235 270 16,000 49 Level Salt Lake Center
Fri 10:41:33 AM 46.4653 -111.6614 287° West 238 274 16,100  Climbing Salt Lake Center
Fri 10:42:34 AM 46.4828 -111.7536 285° West 238 274 16,000 -98 Descending Salt Lake Center
Fri 10:43:35 AM 46.5017 -111.8461 287° West 240 276 15,900  Descending Salt Lake Center
Fri 10:44:36 AM 46.5192 -111.9392 285° West 239 275 16,000 49 Climbing Salt Lake Center
Fri 10:45:37 AM 46.5383 -112.0328 287° West 242 278 16,000  Level Salt Lake Center
Fri 10:46:38 AM 46.5558 -112.1275 285° West 246 283 16,000  Level Salt Lake Center
Fri 10:47:39 AM 46.5786 -112.2419 286° West 247 284 16,000  Level Salt Lake Center
Fri 10:48:40 AM 46.5958 -112.3411 284° West 251 289 16,000  Level Salt Lake Center
Fri 10:49:41 AM 46.6144 -112.4392 285° West 253 291 16,000  Level Salt Lake Center
Fri 10:50:42 AM 46.6311 -112.5378 284° West 252 290 16,000 -49 Level Salt Lake Center
Fri 10:51:43 AM 46.6486 -112.6328 285° West 246 283 15,900 -49 Descending Salt Lake Center
Fri 10:52:44 AM 46.6661 -112.7292 285° West 246 283 15,900 -49 Level Salt Lake Center
Fri 10:53:45 AM 46.6828 -112.8242 284° West 243 280 15,800 49 Descending Salt Lake Center
Fri 10:54:46 AM 46.6997 -112.9211 284° West 247 284 16,000 98 Climbing Salt Lake Center
Fri 10:55:47 AM 46.7167 -113.0164 285° West 246 283 16,000  Level Salt Lake Center
Fri 10:56:48 AM 46.7336 -113.1125 284° West 245 282 16,000 -344 Level Salt Lake Center
Fri 10:57:49 AM 46.7511 -113.2108 285° West 253 291 15,300 -492 Descending Salt Lake Center
Fri 10:58:50 AM 46.7711 -113.3244 284° West 253 291 15,000 -344 Descending Salt Lake Center
Fri 10:59:51 AM 46.7956 -113.4211 290° West 239 275 14,600 -443 Descending Salt Lake Center
Fri 11:00:52 AM 46.8350 -113.5050 305° West 249 287 14,100 -295 Descending Salt Lake Center
Fri 11:01:53 AM 46.8728 -113.5842 305° West 241 277 14,000  Descending Salt Lake Center
Fri 11:02:54 AM 46.9081 -113.6603 304° West 229 264 14,100  Climbing Salt Lake Center
Fri 11:03:55 AM 46.9453 -113.7461 302° West 232 267 14,000  Descending Salt Lake Center
Fri 11:04:56 AM 46.9781 -113.8244 302° West 229 264 14,100 49 Climbing Salt Lake Center
Fri 11:05:57 AM 47.0103 -113.9033 301° West 228 262 14,100 -49 Level Salt Lake Center
Fri 11:06:58 AM 47.0447 -113.9797 304° West 226 260 14,000 -49 Descending Salt Lake Center
Fri 11:07:59 AM 47.0842 -114.0619 305° West 229 264 14,000 -49 Level Salt Lake Center
Fri 11:09:00 AM 47.1164 -114.1411 301° West 228 262 13,900 -344 Descending Salt Lake Center
Fri 11:10:01 AM 47.1517 -114.2258 302° West 242 278 13,300 -590 Descending Salt Lake Center
Fri 11:11:02 AM 47.1900 -114.3200 301° West 249 287 12,700 -585 Descending Salt Lake Center
Fri 11:12:04 AM 47.2206 -114.3892 303° West 253 291 12,100 -1,122 Descending Salt Lake Center
Fri 11:13:05 AM 47.2361 -114.4958 282° West 249 287 10,400 -1,131 Descending Salt Lake Center
Fri 11:14:06 AM 47.1683 -114.5014 183° South 270 311 9,800 -541 Descending Salt Lake Center
Fri 11:15:07 AM 47.1119 -114.4239 137° Southeast 258 297 9,300 -984 Descending Salt Lake Center
Fri 11:16:08 AM 47.0625 -114.3397 131° Southeast 271 312 7,800 -1,623 Descending Salt Lake Center
Fri 11:17:09 AM 47.0158 -114.2606 131° Southeast 261 300 6,000 -1,475 Descending Salt Lake Center
Fri 11:18:10 AM 46.9742 -114.1900 131° Southeast 236 272 4,800 -1,082 Descending Salt Lake Center
Fri 11:19:11 AM 46.9381 -114.1297 131° Southeast 190 219 3,800 -146 Descending Salt Lake Center
Fri 11:20:13 AM 46.9158 -114.0956 134° Southeast 134 154 4,500 1,512 Climbing Salt Lake Center
Fri 11:21:14 AM 46.8733 -114.0817 167° South 160 184 6,900 2,213 Climbing Salt Lake Center
Fri 11:22:15 AM 46.8583 -114.1194 240° Southwest 145 167 9,000 1,082 Climbing Salt Lake Center
Fri 11:23:16 AM 46.8833 -114.1847 299° West 180 207 9,100 49 Climbing Salt Lake Center
Fri 11:24:17 AM 46.9097 -114.2608 297° West 205 236 9,100  Level Salt Lake Center
Fri 11:25:18 AM 46.9394 -114.3350 300° West 211 243 9,100 -49 Level Salt Lake Center
Fri 11:26:19 AM 46.9719 -114.4031 305° West 206 237 9,000 -49 Descending Salt Lake Center
Fri 11:27:20 AM 47.0128 -114.4703 312° West 204 235 9,000  Level Salt Lake Center
Fri 11:29:23 AM 47.0925 -114.5853 316° Northwest 202 232 9,000 -33 Level Salt Lake Center
Fri 11:30:24 AM 47.1344 -114.6225 329° Northwest 199 229 8,900  Descending Salt Lake Center
Fri 11:31:25 AM 47.1608 -114.5336 66° East 237 273 9,000 98 Climbing Salt Lake Center
Fri 11:32:26 AM 47.1269 -114.4519 121° Southeast 235 270 9,100 -344 Climbing Salt Lake Center
Fri 11:33:27 AM 47.0833 -114.3789 131° Southeast 238 274 8,300 -1,180 Descending Salt Lake Center
Fri 11:34:28 AM 47.0378 -114.2997 130° Southeast 251 289 6,700 -1,366 Descending Salt Lake Center
Fri 11:35:30 AM 46.9933 -114.2242 131° Southeast 235 270 5,500 -1,122 Descending Salt Lake Center
Fri 11:36:31 AM 46.9647 -114.1739 130° Southeast 167 192 4,400 -885 Descending Salt Lake Center
Fri 11:37:32 AM 46.9394 -114.1328 132° Southeast 141 162 3,700 -590 Descending Salt Lake Center
Fri 11:38:33 AM 46.9169 -114.0939 130° Southeast 135 155 3,200 -492 Descending Salt Lake Center

Login

Don't have an account? Register now (free) for customized features, flight alerts, and more!